Time;durP1;ratioP1;P1;durP2;ratioP2;P2;SDS_P1;SDS_P2;PMS_P1;PMS_P2;Temp;Humidity;BMP_temperature;BMP_pressure;BME280_temperature;BME280_humidity;BME280_pressure;Samples;Min_cycle;Max_cycle;Signal;HPM_P1;HPM_P2
2021/07/30 00:00:36;;;;;;;;;;;;;;;23.96;60.56;96420.36;222659;261;98934;-63
2021/07/30 00:01:37;;;;;;;;;;;;;;;23.97;60.30;96419.19;222461;261;98928;-61
2021/07/30 00:02:39;;;;;;;;;;;;;;;24.04;60.03;96420.73;222633;261;98950;-65
2021/07/30 00:03:40;;;;;;;;;;;;;;;23.95;60.36;96420.95;222279;261;177899;-63
2021/07/30 00:04:41;;;;;;;;;;;;;;;24.00;60.31;96428.14;222355;261;176057;-63
2021/07/30 00:05:43;;;;;;;;;;;;;;;24.06;60.56;96426.70;222443;261;98947;-64
2021/07/30 00:06:44;;;;;;;;;;;;;;;24.14;59.78;96425.69;222366;261;97942;-63
2021/07/30 00:07:45;;;;;;;;;;;;;;;24.15;59.52;96425.91;222547;261;97997;-63
2021/07/30 00:08:47;;;;;;;;;;;;;;;24.17;59.79;96415.26;222361;261;98012;-65
2021/07/30 00:09:48;;;;;;;;;;;;;;;24.15;59.65;96418.98;222560;261;98066;-64
2021/07/30 00:10:49;;;;;;;;;;;;;;;24.11;60.20;96423.63;222071;261;178597;-63
2021/07/30 00:11:51;;;;;;;;;;;;;;;24.15;59.74;96411.27;222078;262;175330;-63
2021/07/30 00:12:55;;;;;;;;;;;;;;;24.13;59.55;96417.13;222427;261;98934;-64
2021/07/30 00:13:55;;;;;;;;;;;;;;;24.14;59.62;96418.77;222863;261;66510;-66
2021/07/30 00:14:56;;;;;;;;;;;;;;;24.15;59.47;96410.67;223855;260;97069;-66
2021/07/30 00:15:58;;;;;;;;;;;;;;;24.19;59.39;96414.30;222619;262;174213;-63
2021/07/30 00:16:59;;;;;;;;;;;;;;;24.21;59.38;96411.17;223114;260;264898;-64
2021/07/30 00:18:02;;;;;;;;;;;;;;;24.21;59.20;96416.12;221994;262;148707;-62
2021/07/30 00:19:03;;;;;;;;;;;;;;;24.22;59.28;96414.95;222550;261;174162;-63
2021/07/30 00:20:05;;;;;;;;;;;;;;;24.20;59.40;96413.13;223519;260;98019;-62
2021/07/30 00:21:06;;;;;;;;;;;;;;;24.27;59.35;96408.92;222179;261;98926;-65
2021/07/30 00:22:07;;;;;;;;;;;;;;;24.23;59.38;96409.63;221654;262;98914;-61
2021/07/30 00:23:09;;;;;;;;;;;;;;;24.26;59.48;96414.23;221234;263;98939;-64
2021/07/30 00:24:10;;;;;;;;;;;;;;;24.11;60.02;96417.29;221508;262;98926;-63
2021/07/30 00:25:11;;;;;;;;;;;;;;;24.15;59.89;96412.64;222621;261;177910;-64
2021/07/30 00:26:13;;;;;;;;;;;;;;;24.19;59.43;96407.97;222486;260;175938;-65
2021/07/30 00:27:16;;;;;;;;;;;;;;;24.22;59.45;96414.95;222302;261;99257;-65
2021/07/30 00:28:17;;;;;;;;;;;;;;;24.28;59.19;96404.98;222641;261;98962;-65
2021/07/30 00:29:18;;;;;;;;;;;;;;;24.26;59.25;96411.47;223415;260;98893;-65
2021/07/30 00:30:20;;;;;;;;;;;;;;;24.24;59.08;96409.88;222418;261;174551;-64
2021/07/30 00:31:22;;;;;;;;;;;;;;;24.28;59.08;96409.93;222370;261;261421;-63
2021/07/30 00:32:23;;;;;;;;;;;;;;;24.24;59.12;96410.42;221871;262;175922;-63
2021/07/30 00:33:24;;;;;;;;;;;;;;;24.26;58.97;96411.47;221162;262;174448;-65
2021/07/30 00:34:26;;;;;;;;;;;;;;;24.24;59.04;96415.41;221493;262;98015;-63
2021/07/30 00:35:27;;;;;;;;;;;;;;;24.13;59.37;96408.83;221721;262;98926;-64
2021/07/30 00:36:28;;;;;;;;;;;;;;;24.15;59.67;96415.41;222965;261;98837;-61
2021/07/30 00:37:30;;;;;;;;;;;;;;;24.14;59.41;96406.30;221064;263;98987;-65
2021/07/30 00:38:31;;;;;;;;;;;;;;;24.09;59.70;96410.73;223486;260;98961;-64
2021/07/30 00:39:33;;;;;;;;;;;;;;;24.07;60.03;96415.84;222124;261;177899;-65
2021/07/30 00:40:34;;;;;;;;;;;;;;;23.95;60.52;96407.10;222840;261;176796;-65
2021/07/30 00:41:39;;;;;;;;;;;;;;;23.97;60.72;96409.50;222894;260;98960;-64
2021/07/30 00:42:38;;;;;;;;;;;;;;;24.00;59.75;96404.62;222190;262;69945;-63
2021/07/30 00:43:40;;;;;;;;;;;;;;;24.00;59.54;96414.30;223592;260;98933;-65
2021/07/30 00:44:41;;;;;;;;;;;;;;;24.01;60.56;96418.67;222788;261;175687;-65
2021/07/30 00:45:42;;;;;;;;;;;;;;;23.78;59.99;96410.87;222606;260;264197;-63
2021/07/30 00:46:44;;;;;;;;;;;;;;;23.35;60.76;96413.45;222912;261;177828;-63
2021/07/30 00:47:45;;;;;;;;;;;;;;;23.17;61.17;96408.66;222241;261;175212;-65
2021/07/30 00:48:46;;;;;;;;;;;;;;;22.97;61.79;96410.00;222137;261;100290;-59
2021/07/30 00:49:48;;;;;;;;;;;;;;;22.87;62.51;96411.91;222722;262;98930;-65
2021/07/30 00:50:49;;;;;;;;;;;;;;;22.85;62.92;96412.83;221956;262;98924;-64
2021/07/30 00:51:50;;;;;;;;;;;;;;;22.81;62.86;96413.30;221843;261;98949;-65
2021/07/30 00:52:52;;;;;;;;;;;;;;;22.87;62.67;96409.73;222505;259;98933;-61
2021/07/30 00:53:53;;;;;;;;;;;;;;;22.88;62.25;96407.99;221678;260;177204;-61
2021/07/30 00:54:55;;;;;;;;;;;;;;;22.88;62.11;96407.99;222054;261;174445;-60
2021/07/30 00:55:57;;;;;;;;;;;;;;;22.94;61.89;96411.27;219737;254;161330;-59
2021/07/30 00:57:37;;;;;;;;;;;;;;;22.93;61.92;96407.70;221156;247;195572;-61
2021/07/30 00:58:38;;;;;;;;;;;;;;;22.94;61.74;96413.45;219599;251;174583;-61
2021/07/30 00:59:39;;;;;;;;;;;;;;;22.96;61.79;96408.95;219190;265;263144;-62
2021/07/30 01:00:41;;;;;;;;;;;;;;;22.96;61.82;96411.71;218924;265;177847;-61
2021/07/30 01:01:44;;;;;;;;;;;;;;;23.00;61.71;96410.66;218961;266;175704;-60
2021/07/30 01:02:45;;;;;;;;;;;;;;;22.96;62.28;96402.84;219131;266;98955;-64
2021/07/30 01:03:46;;;;;;;;;;;;;;;22.91;62.30;96404.50;219072;266;98930;-55
2021/07/30 01:04:47;;;;;;;;;;;;;;;22.95;62.24;96406.77;219232;266;98914;-59
2021/07/30 01:05:49;;;;;;;;;;;;;;;22.87;61.98;96400.86;218448;266;97922;-54
2021/07/30 01:06:50;;;;;;;;;;;;;;;22.90;61.94;96407.62;219311;266;98014;-58
2021/07/30 01:07:51;;;;;;;;;;;;;;;22.88;61.88;96405.23;218792;266;175983;-54
2021/07/30 01:08:53;;;;;;;;;;;;;;;22.74;62.95;96404.81;218663;266;176771;-66
2021/07/30 01:09:54;;;;;;;;;;;;;;;22.79;62.69;96407.33;218989;266;99449;-64
2021/07/30 01:10:55;;;;;;;;;;;;;;;22.82;62.30;96407.99;218744;266;98950;-63
2021/07/30 01:11:57;;;;;;;;;;;;;;;22.67;63.91;96406.04;218984;266;99036;-63
2021/07/30 01:12:58;;;;;;;;;;;;;;;22.79;62.32;96400.42;218790;266;98938;-63
2021/07/30 01:13:59;;;;;;;;;;;;;;;22.83;62.07;96408.21;218470;266;99001;-63
2021/07/30 01:15:01;;;;;;;;;;;;;;;22.78;62.14;96398.83;218657;266;178015;-65
2021/07/30 01:16:02;;;;;;;;;;;;;;;22.77;62.83;96401.37;218696;266;175555;-64
2021/07/30 01:17:03;;;;;;;;;;;;;;;22.70;62.59;96403.94;218872;266;97996;-67
2021/07/30 01:18:05;;;;;;;;;;;;;;;22.75;62.33;96405.04;218844;266;98127;-57
2021/07/30 01:19:06;;;;;;;;;;;;;;;22.72;62.83;96400.23;218995;266;98925;-61
2021/07/30 01:20:07;;;;;;;;;;;;;;;22.78;62.96;96402.97;218819;266;98949;-61
2021/07/30 01:21:09;;;;;;;;;;;;;;;22.91;62.53;96400.94;219020;266;99034;-61
2021/07/30 01:22:10;;;;;;;;;;;;;;;22.95;61.59;96402.63;218687;266;177879;-59
2021/07/30 01:23:12;;;;;;;;;;;;;;;22.96;61.57;96405.60;218649;266;174601;-58
2021/07/30 01:24:13;;;;;;;;;;;;;;;22.93;61.80;96406.33;218779;266;98008;-60
2021/07/30 01:25:14;;;;;;;;;;;;;;;22.91;61.78;96398.98;218807;266;98970;-59
2021/07/30 01:26:16;;;;;;;;;;;;;;;22.97;61.57;96398.95;219013;266;98947;-61
2021/07/30 01:27:17;;;;;;;;;;;;;;;22.98;61.48;96403.30;218827;266;98974;-61
2021/07/30 01:28:18;;;;;;;;;;;;;;;22.90;62.16;96402.91;219253;265;99438;-67
2021/07/30 01:29:21;;;;;;;;;;;;;;;22.83;63.25;96405.45;218916;265;177831;-67
2021/07/30 01:30:23;;;;;;;;;;;;;;;22.85;62.09;96414.20;219067;266;147297;-70
2021/07/30 01:31:24;;;;;;;;;;;;;;;22.86;61.92;96403.95;217775;267;100251;-65
2021/07/30 01:32:25;;;;;;;;;;;;;;;22.76;61.97;96408.85;217708;267;98938;-64
2021/07/30 01:33:27;;;;;;;;;;;;;;;22.81;62.21;96409.16;216681;269;98959;-64
2021/07/30 01:34:28;;;;;;;;;;;;;;;22.86;61.91;96408.91;217624;268;98785;-63
2021/07/30 01:35:29;;;;;;;;;;;;;;;22.84;61.95;96408.46;216744;269;97981;-63
2021/07/30 01:36:31;;;;;;;;;;;;;;;22.82;61.94;96409.38;217523;268;175882;-68
2021/07/30 01:37:32;;;;;;;;;;;;;;;22.84;61.99;96404.31;217329;268;174303;-65
2021/07/30 01:38:34;;;;;;;;;;;;;;;22.83;61.95;96412.94;217477;268;98905;-64
2021/07/30 01:39:35;;;;;;;;;;;;;;;22.90;61.76;96407.62;215687;269;98863;-65
2021/07/30 01:40:36;;;;;;;;;;;;;;;22.85;61.86;96403.16;215856;270;98936;-64
2021/07/30 01:41:39;;;;;;;;;;;;;;;22.86;62.05;96407.52;215945;269;98960;-65
2021/07/30 01:42:40;;;;;;;;;;;;;;;22.85;61.96;96405.92;216173;269;232085;-65
2021/07/30 01:43:42;;;;;;;;;;;;;;;22.84;62.09;96402.14;216229;269;177790;-67
2021/07/30 01:44:43;;;;;;;;;;;;;;;22.86;61.87;96413.63;215620;269;177485;-67
2021/07/30 01:45:44;;;;;;;;;;;;;;;22.84;61.86;96409.05;215439;270;98931;-65
2021/07/30 01:46:47;;;;;;;;;;;;;;;22.83;62.04;96413.73;215684;269;98034;-64
2021/07/30 01:47:48;;;;;;;;;;;;;;;22.82;61.92;96413.52;215829;270;99009;-61
2021/07/30 01:48:49;;;;;;;;;;;;;;;22.71;63.12;96404.16;215690;270;98948;-67
2021/07/30 01:49:51;;;;;;;;;;;;;;;22.77;62.04;96404.13;215789;269;263770;-65
2021/07/30 01:50:52;;;;;;;;;;;;;;;22.76;62.32;96407.47;216255;269;177967;-65
2021/07/30 01:51:53;;;;;;;;;;;;;;;22.78;62.69;96408.49;216223;268;175293;-68
2021/07/30 01:52:55;;;;;;;;;;;;;;;22.74;62.63;96402.86;215745;269;97792;-65
2021/07/30 01:53:56;;;;;;;;;;;;;;;22.82;62.07;96401.09;215592;269;98014;-65
2021/07/30 01:54:57;;;;;;;;;;;;;;;22.77;61.96;96400.78;215839;270;99114;-64
2021/07/30 01:56:03;;;;;;;;;;;;;;;22.80;62.17;96408.35;215683;270;98960;-66
2021/07/30 01:57:02;;;;;;;;;;;;;;;22.78;62.11;96408.49;216656;268;230060;-63
2021/07/30 01:58:03;;;;;;;;;;;;;;;22.77;61.99;96402.75;216770;268;175975;-65
2021/07/30 01:59:04;;;;;;;;;;;;;;;22.72;62.04;96401.62;216696;268;175493;-64
2021/07/30 02:00:06;;;;;;;;;;;;;;;22.73;62.03;96403.22;217794;267;98966;-65
2021/07/30 02:01:07;;;;;;;;;;;;;;;22.80;61.90;96403.41;218251;267;98971;-65
2021/07/30 02:02:08;;;;;;;;;;;;;;;22.81;61.91;96405.01;216931;268;98947;-57
2021/07/30 02:03:10;;;;;;;;;;;;;;;22.86;62.05;96410.28;218194;267;99003;-58
2021/07/30 02:04:11;;;;;;;;;;;;;;;22.86;62.22;96405.34;218338;267;98962;-61
2021/07/30 02:05:12;;;;;;;;;;;;;;;22.86;61.90;96401.99;216922;268;176937;-61
2021/07/30 02:06:14;;;;;;;;;;;;;;;22.89;61.76;96401.30;217947;267;174159;-61
2021/07/30 02:07:18;;;;;;;;;;;;;;;22.89;61.70;96402.69;217053;268;97967;-60
2021/07/30 02:08:19;;;;;;;;;;;;;;;22.89;61.86;96401.30;218191;267;68808;-66
2021/07/30 02:09:20;;;;;;;;;;;;;;;22.83;62.28;96410.97;217021;268;98853;-65
2021/07/30 02:10:22;;;;;;;;;;;;;;;22.88;62.13;96405.81;217980;267;173875;-64
2021/07/30 02:11:23;;;;;;;;;;;;;;;22.91;61.65;96410.03;216680;268;263980;-63
2021/07/30 02:12:24;;;;;;;;;;;;;;;22.84;61.79;96401.55;217870;267;177884;-58
2021/07/30 02:14:45;;;;;;;;;;;;;;;22.84;61.83;96404.31;216677;268;138486;-67
2021/07/30 02:15:46;;;;;;;;;;;;;;;22.81;61.85;96403.63;217856;267;173968;-68
2021/07/30 02:16:47;;;;;;;;;;;;;;;22.82;61.74;96403.84;216726;268;97070;-68
2021/07/30 02:17:49;;;;;;;;;;;;;;;22.61;62.88;96398.58;218001;267;99045;-66
2021/07/30 02:18:51;;;;;;;;;;;;;;;22.70;62.24;96397.03;217087;268;98988;-56
2021/07/30 02:19:53;;;;;;;;;;;;;;;22.72;62.21;96395.51;217991;267;144905;-60
2021/07/30 02:20:54;;;;;;;;;;;;;;;22.74;62.38;96399.30;216637;268;263413;-64
2021/07/30 02:21:56;;;;;;;;;;;;;;;22.79;62.11;96395.70;217894;267;177253;-66
2021/07/30 02:22:57;;;;;;;;;;;;;;;22.87;61.75;96396.72;216729;268;176127;-66
2021/07/30 02:23:59;;;;;;;;;;;;;;;22.87;61.79;96398.10;217959;267;99871;-62
2021/07/30 02:25:00;;;;;;;;;;;;;;;22.88;61.81;96398.90;216901;268;98004;-64
2021/07/30 02:26:01;;;;;;;;;;;;;;;22.83;61.89;96397.73;218229;267;98025;-65
2021/07/30 02:27:03;;;;;;;;;;;;;;;22.80;62.09;96393.73;218002;267;97017;-64
2021/07/30 02:28:04;;;;;;;;;;;;;;;22.84;62.01;96393.27;218348;267;99867;-63
2021/07/30 02:29:05;;;;;;;;;;;;;;;22.90;61.98;96400.14;217043;268;177221;-64
2021/07/30 02:30:07;;;;;;;;;;;;;;;22.89;61.96;96393.02;217953;267;175853;-62
2021/07/30 02:31:08;;;;;;;;;;;;;;;22.84;61.94;96393.27;216916;268;98935;-65
2021/07/30 02:32:09;;;;;;;;;;;;;;;22.75;62.28;96392.61;217153;268;98926;-65
2021/07/30 02:33:11;;;;;;;;;;;;;;;22.53;63.24;96398.97;218086;267;98903;-64
2021/07/30 02:34:12;;;;;;;;;;;;;;;22.56;63.04;96399.44;215527;270;98027;-63
2021/07/30 02:35:13;;;;;;;;;;;;;;;22.64;62.36;96397.86;218381;266;97597;-64
2021/07/30 02:36:15;;;;;;;;;;;;;;;22.69;62.65;96394.05;218734;266;178027;-63
2021/07/30 02:37:16;;;;;;;;;;;;;;;22.73;62.10;96393.55;217555;268;176120;-62
2021/07/30 02:38:17;;;;;;;;;;;;;;;22.76;63.03;96397.80;218274;266;99026;-63
2021/07/30 02:39:19;;;;;;;;;;;;;;;22.77;62.05;96399.41;218214;267;98951;-62
2021/07/30 02:40:20;;;;;;;;;;;;;;;22.79;62.27;96399.84;217290;268;97734;-57
2021/07/30 02:41:22;;;;;;;;;;;;;;;22.79;62.14;96403.19;217871;267;98947;-61
2021/07/30 02:42:23;;;;;;;;;;;;;;;22.76;62.00;96397.00;218052;267;99084;-61
2021/07/30 02:43:24;;;;;;;;;;;;;;;22.75;62.04;96400.89;217547;267;177980;-62
2021/07/30 02:44:25;;;;;;;;;;;;;;;22.78;61.97;96401.59;217652;267;176068;-59
2021/07/30 02:45:27;;;;;;;;;;;;;;;22.74;62.12;96405.63;217724;267;99042;-62
2021/07/30 02:46:28;;;;;;;;;;;;;;;22.82;61.93;96407.99;217871;267;98975;-62
2021/07/30 02:47:29;;;;;;;;;;;;;;;22.78;61.95;96403.77;217780;267;98946;-63
2021/07/30 02:48:31;;;;;;;;;;;;;;;22.77;62.06;96402.16;217896;267;99045;-59
2021/07/30 02:49:32;;;;;;;;;;;;;;;22.84;62.00;96401.55;217980;267;97999;-58
2021/07/30 02:50:33;;;;;;;;;;;;;;;22.76;62.01;96402.53;217759;267;175990;-56
2021/07/30 02:51:35;;;;;;;;;;;;;;;22.83;62.19;96401.30;217694;267;174025;-66
2021/07/30 02:52:36;;;;;;;;;;;;;;;22.91;62.16;96401.74;217816;267;97990;-66
2021/07/30 02:53:38;;;;;;;;;;;;;;;22.88;61.61;96401.08;217640;267;98943;-66
2021/07/30 02:54:40;;;;;;;;;;;;;;;22.83;61.75;96401.30;218015;267;68893;-62
2021/07/30 02:55:42;;;;;;;;;;;;;;;22.87;61.68;96401.44;217630;267;172739;-59
2021/07/30 02:56:43;;;;;;;;;;;;;;;23.00;61.57;96400.18;217629;267;262636;-61
2021/07/30 02:57:45;;;;;;;;;;;;;;;23.04;61.39;96401.86;217624;267;176002;-58
2021/07/30 02:58:47;;;;;;;;;;;;;;;23.05;60.95;96400.70;217652;266;177465;-59
2021/07/30 02:59:48;;;;;;;;;;;;;;;22.98;61.39;96397.78;218528;266;99037;-59
2021/07/30 03:00:49;;;;;;;;;;;;;;;22.94;61.23;96401.02;217814;267;98903;-57
2021/07/30 03:01:51;;;;;;;;;;;;;;;22.93;61.19;96402.18;218014;267;97694;-59
2021/07/30 03:02:52;;;;;;;;;;;;;;;22.93;61.26;96402.18;217729;267;98128;-60
2021/07/30 03:03:53;;;;;;;;;;;;;;;22.89;61.42;96401.30;217985;267;98471;-60
2021/07/30 03:04:54;;;;;;;;;;;;;;;22.89;61.23;96405.45;217712;267;176183;-60
2021/07/30 03:05:56;;;;;;;;;;;;;;;22.83;61.72;96404.06;217347;267;175600;-67
2021/07/30 03:06:57;;;;;;;;;;;;;;;22.83;61.77;96401.30;217737;267;98964;-62
2021/07/30 03:07:58;;;;;;;;;;;;;;;22.86;62.25;96401.99;217706;267;99426;-68
2021/07/30 03:09:00;;;;;;;;;;;;;;;22.80;62.30;96403.41;217865;267;99042;-65
2021/07/30 03:10:01;;;;;;;;;;;;;;;22.91;61.43;96404.50;217696;267;98960;-66
2021/07/30 03:11:03;;;;;;;;;;;;;;;22.95;61.17;96405.38;217804;267;98926;-66
2021/07/30 03:12:04;;;;;;;;;;;;;;;22.93;61.31;96398.03;217663;267;179121;-65
2021/07/30 03:13:05;;;;;;;;;;;;;;;22.69;63.92;96398.19;217503;267;176145;-65
2021/07/30 03:14:06;;;;;;;;;;;;;;;22.81;62.51;96399.48;217788;267;97898;-65
2021/07/30 03:15:08;;;;;;;;;;;;;;;22.44;66.02;96404.45;217733;267;98167;-67
2021/07/30 03:16:11;;;;;;;;;;;;;;;22.45;64.80;96409.63;218026;267;98049;-69
2021/07/30 03:17:12;;;;;;;;;;;;;;;22.69;62.14;96393.47;217773;267;144036;-68
2021/07/30 03:18:13;;;;;;;;;;;;;;;22.46;63.34;96402.14;217549;267;260120;-62
2021/07/30 03:19:15;;;;;;;;;;;;;;;22.54;62.76;96402.53;217641;266;176055;-65
2021/07/30 03:20:16;;;;;;;;;;;;;;;22.75;62.23;96398.13;217802;266;174300;-63
2021/07/30 03:21:17;;;;;;;;;;;;;;;22.83;61.69;96390.25;217730;267;98026;-62
2021/07/30 03:22:19;;;;;;;;;;;;;;;22.86;61.83;96394.28;217793;267;97186;-64
2021/07/30 03:23:20;;;;;;;;;;;;;;;22.92;61.39;96400.58;217802;267;98769;-63
2021/07/30 03:24:21;;;;;;;;;;;;;;;22.88;61.27;96396.14;217791;267;100211;-64
2021/07/30 03:25:23;;;;;;;;;;;;;;;22.94;61.62;96394.69;217876;267;98952;-64
2021/07/30 03:26:24;;;;;;;;;;;;;;;22.90;61.64;96398.76;217670;267;178794;-65
2021/07/30 03:27:25;;;;;;;;;;;;;;;22.81;61.61;96398.10;217601;267;176376;-70
2021/07/30 03:28:27;;;;;;;;;;;;;;;22.75;62.61;96399.52;217747;267;98949;-68
2021/07/30 03:29:28;;;;;;;;;;;;;;;22.84;61.47;96400.17;217691;267;98952;-70
2021/07/30 03:30:29;;;;;;;;;;;;;;;22.85;61.31;96398.21;217923;267;98936;-68
2021/07/30 03:31:31;;;;;;;;;;;;;;;22.81;61.84;96397.52;217263;267;98862;-71
2021/07/30 03:32:32;;;;;;;;;;;;;;;22.87;61.37;96397.30;217958;267;98955;-70
2021/07/30 03:33:33;;;;;;;;;;;;;;;22.89;61.22;96403.27;217673;267;178698;-69
2021/07/30 03:34:35;;;;;;;;;;;;;;;22.91;61.28;96398.98;217625;267;175378;-68
2021/07/30 03:35:36;;;;;;;;;;;;;;;22.92;61.16;96391.48;217774;267;97997;-67
2021/07/30 03:36:37;;;;;;;;;;;;;;;22.92;61.08;96392.87;217780;267;98015;-69
2021/07/30 03:37:39;;;;;;;;;;;;;;;22.85;61.13;96396.83;217922;267;98001;-64
2021/07/30 03:38:40;;;;;;;;;;;;;;;22.91;61.38;96395.41;217747;267;98967;-70
2021/07/30 03:39:41;;;;;;;;;;;;;;;22.90;61.42;96392.44;217878;267;98928;-65
2021/07/30 03:40:43;;;;;;;;;;;;;;;22.96;61.18;96396.52;217666;267;178137;-64
2021/07/30 03:41:44;;;;;;;;;;;;;;;22.98;61.20;96395.02;217596;267;177469;-62
2021/07/30 03:42:45;;;;;;;;;;;;;;;22.96;60.83;96389.60;217748;267;98851;-63
2021/07/30 03:43:47;;;;;;;;;;;;;;;22.97;60.84;96397.56;217694;267;99395;-64
2021/07/30 03:44:48;;;;;;;;;;;;;;;22.99;60.82;96386.14;217891;267;98951;-64
2021/07/30 03:45:50;;;;;;;;;;;;;;;22.97;60.93;96393.42;217728;267;98929;-72
2021/07/30 03:46:51;;;;;;;;;;;;;;;22.92;61.07;96393.67;217932;267;99041;-68
2021/07/30 03:47:52;;;;;;;;;;;;;;;22.93;61.03;96392.51;217624;267;177848;-67
2021/07/30 03:48:53;;;;;;;;;;;;;;;22.90;60.96;96391.84;217650;267;176747;-67
2021/07/30 03:49:55;;;;;;;;;;;;;;;22.90;60.93;96391.84;217733;267;98096;-70
2021/07/30 03:50:56;;;;;;;;;;;;;;;22.90;60.96;96393.81;217759;267;98049;-69
2021/07/30 03:51:57;;;;;;;;;;;;;;;22.64;62.43;96392.34;217715;267;97989;-68
2021/07/30 03:52:59;;;;;;;;;;;;;;;22.52;64.95;96398.74;217738;267;99102;-67
2021/07/30 03:54:00;;;;;;;;;;;;;;;22.69;61.81;96392.67;217875;267;99008;-66
2021/07/30 03:55:02;;;;;;;;;;;;;;;22.80;61.46;96396.50;217638;267;177252;-65
2021/07/30 03:56:03;;;;;;;;;;;;;;;22.61;62.31;96392.25;217614;267;175868;-68
2021/07/30 03:57:04;;;;;;;;;;;;;;;22.70;61.47;96394.27;217795;267;98962;-66
2021/07/30 03:58:06;;;;;;;;;;;;;;;22.55;62.50;96389.55;217852;267;98006;-67
2021/07/30 03:59:07;;;;;;;;;;;;;;;22.46;63.98;96395.23;218014;267;97940;-67
2021/07/30 04:00:09;;;;;;;;;;;;;;;22.63;61.84;96394.88;217827;267;98959;-68
2021/07/30 04:01:11;;;;;;;;;;;;;;;22.78;61.39;96391.34;218179;266;98958;-67
2021/07/30 04:02:13;;;;;;;;;;;;;;;22.66;61.93;96395.57;218051;266;151663;-65
2021/07/30 04:03:14;;;;;;;;;;;;;;;22.80;61.42;96390.39;217523;267;176801;-67
2021/07/30 04:04:16;;;;;;;;;;;;;;;22.87;61.10;96389.81;217748;267;98964;-62
2021/07/30 04:05:17;;;;;;;;;;;;;;;22.93;61.10;96394.47;217733;267;98950;-62
2021/07/30 04:06:18;;;;;;;;;;;;;;;23.01;60.93;96395.67;217917;267;100361;-62
2021/07/30 04:07:20;;;;;;;;;;;;;;;23.02;60.74;96391.75;217758;267;98963;-71
2021/07/30 04:08:21;;;;;;;;;;;;;;;23.02;60.90;96388.19;217926;267;98943;-69
2021/07/30 04:09:22;;;;;;;;;;;;;;;22.92;61.20;96388.14;217719;267;177937;-72
2021/07/30 04:10:26;;;;;;;;;;;;;;;22.97;61.27;96387.89;217723;267;176075;-68
2021/07/30 04:11:27;;;;;;;;;;;;;;;22.96;61.01;96386.84;217830;267;66980;-70
2021/07/30 04:12:28;;;;;;;;;;;;;;;22.95;60.87;96386.62;217737;267;98954;-70
2021/07/30 04:13:29;;;;;;;;;;;;;;;23.00;60.92;96384.98;217797;267;98950;-69
2021/07/30 04:14:31;;;;;;;;;;;;;;;22.67;63.54;96388.88;217133;267;176413;-70
2021/07/30 04:15:32;;;;;;;;;;;;;;;22.75;61.38;96391.23;216962;267;262856;-71
2021/07/30 04:16:34;;;;;;;;;;;;;;;22.84;61.16;96392.47;217644;267;178086;-71
2021/07/30 04:17:37;;;;;;;;;;;;;;;22.90;60.81;96393.23;217722;267;148475;-71
2021/07/30 04:18:38;;;;;;;;;;;;;;;22.85;61.21;96392.69;217734;267;97869;-70
2021/07/30 04:19:43;;;;;;;;;;;;;;;22.87;60.98;96396.72;217758;267;97766;-72
2021/07/30 04:20:42;;;;;;;;;;;;;;;22.89;61.33;96394.98;217983;267;67117;-70
2021/07/30 04:21:44;;;;;;;;;;;;;;;22.95;60.83;96392.95;217651;267;173530;-70
2021/07/30 04:22:45;;;;;;;;;;;;;;;23.02;60.86;96402.00;217466;267;262268;-71
2021/07/30 04:23:46;;;;;;;;;;;;;;;22.88;61.24;96398.90;217508;267;175922;-71
2021/07/30 04:24:48;;;;;;;;;;;;;;;22.95;60.82;96399.86;217601;267;174369;-70
2021/07/30 04:25:49;;;;;;;;;;;;;;;22.97;60.72;96399.52;217713;267;97704;-69
2021/07/30 04:26:50;;;;;;;;;;;;;;;22.91;61.09;96396.22;217570;267;98948;-66
2021/07/30 04:27:52;;;;;;;;;;;;;;;22.77;61.72;96395.84;217499;267;98958;-68
2021/07/30 04:28:53;;;;;;;;;;;;;;;22.69;61.68;96391.29;217401;266;99042;-69
2021/07/30 04:29:54;;;;;;;;;;;;;;;22.74;62.12;96393.77;218001;267;99441;-67
2021/07/30 04:30:56;;;;;;;;;;;;;;;22.83;61.02;96393.02;218192;266;177666;-67
2021/07/30 04:31:57;;;;;;;;;;;;;;;22.92;60.97;96392.87;218521;266;176551;-67
2021/07/30 04:32:58;;;;;;;;;;;;;;;22.73;61.81;96395.73;218440;266;98960;-67
2021/07/30 04:34:00;;;;;;;;;;;;;;;22.81;61.12;96397.52;217530;267;99822;-68
2021/07/30 04:35:01;;;;;;;;;;;;;;;22.89;61.07;96397.16;217736;267;99065;-68
2021/07/30 04:36:02;;;;;;;;;;;;;;;22.99;60.91;96398.58;216914;268;97976;-66
2021/07/30 04:37:04;;;;;;;;;;;;;;;23.02;60.92;96402.80;217963;267;97995;-60
2021/07/30 04:38:05;;;;;;;;;;;;;;;23.01;61.13;96399.82;217690;267;176054;-64
2021/07/30 04:39:06;;;;;;;;;;;;;;;23.02;61.07;96397.27;217739;267;175435;-62
2021/07/30 04:40:08;;;;;;;;;;;;;;;23.06;60.91;96400.91;217804;267;98966;-64
2021/07/30 04:41:09;;;;;;;;;;;;;;;23.13;60.71;96400.30;217857;267;99048;-64
2021/07/30 04:42:10;;;;;;;;;;;;;;;23.19;60.30;96399.45;217978;267;98976;-63
2021/07/30 04:43:12;;;;;;;;;;;;;;;23.18;60.43;96404.73;217768;267;98935;-66
2021/07/30 04:44:13;;;;;;;;;;;;;;;23.21;60.73;96402.08;217991;267;99049;-66
2021/07/30 04:45:14;;;;;;;;;;;;;;;23.29;60.03;96401.67;217705;267;178744;-67
2021/07/30 04:46:16;;;;;;;;;;;;;;;23.33;59.76;96406.69;217695;267;174087;-65
2021/07/30 04:47:17;;;;;;;;;;;;;;;23.31;59.66;96411.20;217865;267;97946;-66
2021/07/30 04:48:18;;;;;;;;;;;;;;;23.24;61.67;96404.69;217740;267;98978;-68
2021/07/30 04:49:20;;;;;;;;;;;;;;;23.16;62.68;96404.30;217935;267;98939;-66
2021/07/30 04:50:21;;;;;;;;;;;;;;;23.18;60.33;96406.95;217712;267;98955;-67
2021/07/30 04:51:22;;;;;;;;;;;;;;;23.27;60.07;96402.59;217972;267;98938;-66
2021/07/30 04:52:24;;;;;;;;;;;;;;;23.29;59.84;96404.44;217613;267;177975;-66
2021/07/30 04:53:25;;;;;;;;;;;;;;;23.16;60.46;96405.09;217553;267;176220;-66
2021/07/30 04:54:26;;;;;;;;;;;;;;;23.02;60.99;96402.00;217527;267;98939;-68
2021/07/30 04:55:28;;;;;;;;;;;;;;;23.16;60.38;96405.68;217680;267;98927;-67
2021/07/30 04:56:29;;;;;;;;;;;;;;;23.23;60.14;96402.52;217929;267;99115;-67
2021/07/30 04:57:30;;;;;;;;;;;;;;;23.04;60.78;96402.44;217801;266;97654;-66
2021/07/30 04:58:32;;;;;;;;;;;;;;;22.90;61.52;96407.05;218410;266;98014;-67
2021/07/30 04:59:33;;;;;;;;;;;;;;;23.04;60.65;96406.00;217615;267;175897;-65
2021/07/30 05:00:34;;;;;;;;;;;;;;;23.15;60.49;96405.45;217677;267;176102;-66
2021/07/30 05:01:41;;;;;;;;;;;;;;;23.22;60.41;96401.49;217832;267;98924;-66
2021/07/30 05:02:39;;;;;;;;;;;;;;;23.20;60.30;96402.44;217749;267;66550;-66
2021/07/30 05:03:40;;;;;;;;;;;;;;;23.21;60.34;96400.69;217445;267;97921;-65
2021/07/30 05:04:41;;;;;;;;;;;;;;;23.22;60.40;96402.87;216512;268;172611;-66
2021/07/30 05:05:43;;;;;;;;;;;;;;;23.29;60.28;96407.20;217435;267;264281;-66
2021/07/30 05:06:44;;;;;;;;;;;;;;;23.32;59.90;96403.70;216930;268;177235;-67
2021/07/30 05:07:45;;;;;;;;;;;;;;;23.32;59.65;96407.27;217802;267;175544;-65
2021/07/30 05:08:47;;;;;;;;;;;;;;;23.26;60.03;96404.55;217961;267;98935;-71
2021/07/30 05:09:48;;;;;;;;;;;;;;;23.30;60.17;96404.66;217996;267;99449;-72
2021/07/30 05:10:50;;;;;;;;;;;;;;;23.33;59.77;96403.92;218037;267;97092;-75
2021/07/30 05:11:51;;;;;;;;;;;;;;;23.26;60.42;96399.02;218269;266;98924;-72
2021/07/30 05:12:52;;;;;;;;;;;;;;;23.29;59.80;96398.91;217292;268;98947;-74
2021/07/30 05:13:54;;;;;;;;;;;;;;;23.23;60.23;96397.56;216978;268;179062;-74
2021/07/30 05:14:55;;;;;;;;;;;;;;;23.25;59.95;96399.38;216798;268;176151;-73
2021/07/30 05:15:58;;;;;;;;;;;;;;;23.26;59.97;96399.60;217925;267;98947;-74
2021/07/30 05:16:59;;;;;;;;;;;;;;;23.31;59.78;96400.72;217946;267;99544;-72
2021/07/30 05:18:01;;;;;;;;;;;;;;;23.36;59.68;96403.20;218080;267;98861;-74
2021/07/30 05:19:02;;;;;;;;;;;;;;;23.36;59.82;96392.13;217820;267;98969;-73
2021/07/30 05:20:03;;;;;;;;;;;;;;;23.37;59.67;96400.65;217646;267;262765;-73